createdAt,value
2023-01-21T00:00:42.310Z,72.20
2023-01-21T00:01:41.472Z,72.20
2023-01-21T00:02:41.379Z,74.60
2023-01-21T00:03:41.530Z,75.10
2023-01-21T00:04:41.327Z,69.90
2023-01-21T00:05:41.306Z,71.50
2023-01-21T00:06:41.335Z,69.70
2023-01-21T00:07:41.313Z,73.40
2023-01-21T00:08:42.342Z,69.20
2023-01-21T00:09:42.305Z,68.50
2023-01-21T00:10:41.311Z,67.90
2023-01-21T00:11:41.317Z,72.70
2023-01-21T00:12:41.302Z,75.00
2023-01-21T00:13:41.300Z,72.70
2023-01-21T00:14:41.316Z,71.60
2023-01-21T00:15:41.268Z,71.50
2023-01-21T00:16:41.308Z,69.10
2023-01-21T00:17:41.322Z,71.90
2023-01-21T00:18:41.272Z,75.40
2023-01-21T00:19:41.234Z,72.30
2023-01-21T00:20:41.217Z,69.20
2023-01-21T00:21:41.207Z,76.30
2023-01-21T00:22:41.185Z,70.40
2023-01-21T00:23:41.244Z,73.60
2023-01-21T00:24:41.196Z,71.10
2023-01-21T00:25:41.189Z,76.10
2023-01-21T00:26:41.182Z,70.10
2023-01-21T00:27:41.282Z,72.20
2023-01-21T00:28:41.136Z,68.90
2023-01-21T00:29:41.157Z,67.90
2023-01-21T00:30:41.244Z,68.10
2023-01-21T00:31:41.269Z,70.40
2023-01-21T00:32:41.129Z,68.30
2023-01-21T00:33:41.155Z,67.00
2023-01-21T00:34:41.158Z,65.30
2023-01-21T00:35:41.128Z,68.90
2023-01-21T00:36:41.089Z,67.50
2023-01-21T00:37:41.075Z,69.00
2023-01-21T00:38:41.088Z,66.60
2023-01-21T00:39:41.098Z,66.70
2023-01-21T00:40:41.110Z,68.80
2023-01-21T00:41:41.104Z,68.40
2023-01-21T00:42:41.072Z,68.10
2023-01-21T00:43:41.087Z,70.00
2023-01-21T00:44:41.083Z,67.00
2023-01-21T00:45:41.095Z,68.20
2023-01-21T00:46:41.074Z,70.00
2023-01-21T00:47:41.062Z,72.80
2023-01-21T00:48:41.036Z,71.40
2023-01-21T00:49:41.012Z,70.40
2023-01-21T00:50:41.032Z,73.90
2023-01-21T00:51:41.079Z,72.10
2023-01-21T00:52:41.062Z,72.70
2023-01-21T00:53:40.961Z,71.70
2023-01-21T00:54:40.950Z,72.70
2023-01-21T00:55:40.983Z,69.40
2023-01-21T00:56:41.012Z,75.90
2023-01-21T00:57:40.973Z,70.60
2023-01-21T00:58:40.984Z,73.30
2023-01-21T00:59:41.043Z,72.40
2023-01-21T01:00:40.957Z,65.70
2023-01-21T01:01:41.318Z,66.20
2023-01-21T01:02:40.988Z,64.80
2023-01-21T01:03:40.974Z,69.20
2023-01-21T01:04:40.912Z,76.10
2023-01-21T01:05:40.921Z,66.50
2023-01-21T01:06:40.903Z,65.50
2023-01-21T01:07:40.959Z,67.80
2023-01-21T01:08:40.875Z,66.20
2023-01-21T01:09:40.848Z,67.10
2023-01-21T01:10:40.855Z,66.90
2023-01-21T01:11:40.874Z,71.40
2023-01-21T01:12:40.870Z,73.60
2023-01-21T01:13:40.944Z,71.20
2023-01-21T01:14:40.822Z,69.60
2023-01-21T01:15:40.886Z,70.40
2023-01-21T01:16:40.809Z,66.60
2023-01-21T01:17:40.973Z,58.40
2023-01-21T01:18:40.777Z,66.00
2023-01-21T01:19:41.640Z,61.10
2023-01-21T01:20:40.780Z,63.20
2023-01-21T01:21:40.785Z,60.70
2023-01-21T01:22:40.815Z,63.70
2023-01-21T01:23:40.818Z,72.00
2023-01-21T01:24:40.754Z,64.80
2023-01-21T01:25:40.739Z,61.70
2023-01-21T01:26:42.270Z,56.50
2023-01-21T01:27:41.740Z,55.30
2023-01-21T01:28:40.715Z,54.10
2023-01-21T01:29:40.746Z,55.50
2023-01-21T01:30:40.723Z,60.60
2023-01-21T01:31:40.737Z,56.80
2023-01-21T01:32:40.710Z,56.20
2023-01-21T01:33:40.713Z,55.10
2023-01-21T01:34:40.717Z,52.20
2023-01-21T01:35:40.659Z,56.00
2023-01-21T01:36:40.787Z,62.90
2023-01-21T01:37:40.680Z,60.30
2023-01-21T01:38:40.651Z,54.00
2023-01-21T01:39:40.673Z,57.10
2023-01-21T01:40:40.648Z,58.60
2023-01-21T01:41:40.765Z,53.70
2023-01-21T01:42:40.672Z,59.10
2023-01-21T01:43:40.614Z,55.90
2023-01-21T01:44:40.674Z,53.40
2023-01-21T01:45:40.644Z,52.30
2023-01-21T01:46:40.614Z,53.40
2023-01-21T01:47:40.612Z,56.00
2023-01-21T01:48:40.646Z,57.60
2023-01-21T01:49:40.599Z,55.30
2023-01-21T01:50:40.586Z,53.10
2023-01-21T01:51:40.552Z,52.90
2023-01-21T01:52:40.608Z,53.70
2023-01-21T01:53:40.532Z,53.60
2023-01-21T01:54:40.522Z,54.60
2023-01-21T01:55:40.555Z,53.80
2023-01-21T01:56:40.523Z,54.40
2023-01-21T01:57:40.500Z,50.90
2023-01-21T01:58:40.497Z,51.20
2023-01-21T01:59:40.506Z,55.00
2023-01-21T02:00:40.483Z,52.20
2023-01-21T02:01:41.182Z,53.10
2023-01-21T02:02:40.666Z,55.90
2023-01-21T02:03:40.463Z,49.20
2023-01-21T02:04:40.466Z,53.50
2023-01-21T02:05:40.513Z,51.10
2023-01-21T02:06:40.504Z,49.80
2023-01-21T02:07:40.484Z,48.90
2023-01-21T02:08:40.433Z,54.30
2023-01-21T02:09:40.438Z,51.10
2023-01-21T02:10:40.410Z,51.80
2023-01-21T02:11:40.397Z,52.20
2023-01-21T02:12:40.405Z,48.90
2023-01-21T02:13:40.419Z,48.40
2023-01-21T02:14:40.371Z,49.30
2023-01-21T02:15:40.404Z,52.50
2023-01-21T02:16:40.362Z,50.80
2023-01-21T02:17:40.376Z,47.20
2023-01-21T02:18:40.373Z,49.60
2023-01-21T02:19:40.374Z,50.00
2023-01-21T02:20:40.347Z,47.50
2023-01-21T02:21:40.360Z,48.20
2023-01-21T02:22:40.326Z,49.50
2023-01-21T02:23:40.345Z,45.80
2023-01-21T02:24:40.340Z,48.50
2023-01-21T02:25:40.321Z,47.30
2023-01-21T02:26:40.285Z,46.90
2023-01-21T02:27:40.300Z,44.40
2023-01-21T02:28:40.307Z,43.90
2023-01-21T02:29:40.339Z,44.30
2023-01-21T02:30:40.324Z,44.40
2023-01-21T02:31:41.236Z,45.50
2023-01-21T02:32:40.238Z,45.50
2023-01-21T02:33:40.261Z,42.60
2023-01-21T02:34:40.271Z,43.50
2023-01-21T02:36:12.150Z,45.10
2023-01-21T02:36:40.222Z,41.50
2023-01-21T02:37:40.207Z,42.80
2023-01-21T02:38:40.221Z,42.40
2023-01-21T02:39:40.213Z,45.50
2023-01-21T02:40:40.274Z,43.40
2023-01-21T02:41:40.186Z,43.50
2023-01-21T02:42:40.173Z,44.50
2023-01-21T02:43:40.182Z,45.40
2023-01-21T02:44:40.151Z,45.40
2023-01-21T02:45:40.196Z,43.50
2023-01-21T02:46:40.175Z,45.00
2023-01-21T02:47:40.161Z,45.30
2023-01-21T02:48:40.126Z,42.40
2023-01-21T02:49:40.134Z,44.60
2023-01-21T02:50:40.167Z,44.30
2023-01-21T02:51:40.116Z,40.70
2023-01-21T02:52:40.106Z,43.50
2023-01-21T02:53:40.105Z,45.40
2023-01-21T02:54:40.143Z,46.50
2023-01-21T02:55:42.005Z,41.70
2023-01-21T02:56:40.102Z,40.20
2023-01-21T02:57:40.067Z,40.40
2023-01-21T02:58:40.096Z,39.70
2023-01-21T02:59:40.039Z,42.70
2023-01-21T03:00:40.073Z,43.20
2023-01-21T03:01:40.084Z,44.30
2023-01-21T03:02:40.694Z,41.70
2023-01-21T03:03:41.419Z,43.10
2023-01-21T03:04:41.012Z,40.60
2023-01-21T03:05:40.021Z,40.90
2023-01-21T03:06:39.994Z,42.30
2023-01-21T03:07:40.015Z,47.10
2023-01-21T03:08:39.985Z,44.60
2023-01-21T03:09:40.000Z,42.70
2023-01-21T03:10:39.992Z,44.60
2023-01-21T03:11:39.951Z,44.60
2023-01-21T03:12:39.975Z,48.70
2023-01-21T03:13:39.989Z,44.70
2023-01-21T03:14:39.956Z,43.40
2023-01-21T03:15:39.933Z,47.40
2023-01-21T03:16:39.991Z,46.80
2023-01-21T03:17:39.929Z,49.40
2023-01-21T03:18:39.924Z,47.60
2023-01-21T03:19:39.932Z,42.10
2023-01-21T03:20:39.895Z,43.80
2023-01-21T03:21:39.882Z,43.80
2023-01-21T03:22:39.872Z,48.80
2023-01-21T03:23:39.885Z,43.70
2023-01-21T03:24:40.704Z,46.30
2023-01-21T03:25:39.887Z,45.50
2023-01-21T03:26:39.855Z,46.40
2023-01-21T03:27:39.862Z,44.00
2023-01-21T03:28:39.880Z,42.60
2023-01-21T03:29:39.827Z,45.40
2023-01-21T03:30:39.875Z,44.00
2023-01-21T03:31:39.875Z,43.70
2023-01-21T03:32:39.808Z,40.80
2023-01-21T03:33:39.812Z,39.60
2023-01-21T03:34:39.788Z,45.10
2023-01-21T03:35:39.827Z,42.40
2023-01-21T03:36:39.788Z,41.10
2023-01-21T03:37:39.776Z,36.90
2023-01-21T03:38:39.763Z,39.30
2023-01-21T03:39:39.812Z,40.10
2023-01-21T03:40:40.125Z,41.60
2023-01-21T03:41:39.781Z,38.20
2023-01-21T03:42:39.748Z,40.20
2023-01-21T03:43:39.746Z,38.30
2023-01-21T03:44:39.716Z,40.90
2023-01-21T03:45:39.757Z,42.30
2023-01-21T03:46:39.741Z,40.50
2023-01-21T04:02:53.737Z,36.40
2023-01-21T04:03:53.726Z,38.90
2023-01-21T04:04:53.701Z,41.30
2023-01-21T04:05:53.707Z,45.30
2023-01-21T04:06:54.812Z,44.00
2023-01-21T04:07:54.857Z,45.00
2023-01-21T04:08:54.888Z,50.20
2023-01-21T04:09:54.815Z,44.50
2023-01-21T04:10:54.807Z,46.50
2023-01-21T04:11:54.805Z,46.50
2023-01-21T04:12:54.780Z,44.20
2023-01-21T04:13:54.782Z,42.60
2023-01-21T04:14:54.765Z,46.90
2023-01-21T04:15:54.747Z,43.70
2023-01-21T04:16:54.739Z,42.30
2023-01-21T04:17:54.773Z,43.60
2023-01-21T04:18:54.744Z,43.10
2023-01-21T04:19:54.728Z,43.30
2023-01-21T04:20:54.741Z,42.50
2023-01-21T04:21:55.462Z,44.10
2023-01-21T04:22:54.700Z,41.60
2023-01-21T04:23:54.712Z,44.70
2023-01-21T04:24:54.682Z,45.90
2023-01-21T04:25:54.714Z,42.70
2023-01-21T04:26:54.688Z,39.20
2023-01-21T04:27:54.676Z,41.60
2023-01-21T04:28:54.668Z,40.50
2023-01-21T04:29:54.679Z,44.10
2023-01-21T04:30:54.716Z,40.00
2023-01-21T04:31:54.895Z,42.00
2023-01-21T04:32:54.634Z,46.70
2023-01-21T04:33:54.623Z,40.50
2023-01-21T04:34:54.652Z,44.70
2023-01-21T04:35:55.298Z,46.30
2023-01-21T04:36:55.621Z,42.70
2023-01-21T04:37:55.270Z,46.10
2023-01-21T04:38:54.576Z,43.60
2023-01-21T04:39:54.605Z,47.80
2023-01-21T04:40:54.578Z,45.70
2023-01-21T04:41:54.585Z,48.00
2023-01-21T04:42:54.589Z,49.00
2023-01-21T04:43:54.570Z,49.30
2023-01-21T04:44:54.539Z,48.60
2023-01-21T04:45:54.585Z,52.50
2023-01-21T04:46:54.575Z,49.80
2023-01-21T04:47:54.642Z,48.80
2023-01-21T04:48:54.549Z,45.10
2023-01-21T04:49:54.517Z,46.10
2023-01-21T04:50:54.551Z,44.60
2023-01-21T04:51:54.523Z,50.40
2023-01-21T04:52:54.510Z,46.80
2023-01-21T04:53:54.475Z,46.60
2023-01-21T04:54:54.476Z,46.80
2023-01-21T04:55:54.443Z,49.00
2023-01-21T04:56:54.475Z,47.10
2023-01-21T04:57:54.459Z,44.30
2023-01-21T04:58:55.452Z,46.70
2023-01-21T04:59:54.429Z,44.60
2023-01-21T05:00:54.463Z,47.20
2023-01-21T05:01:54.412Z,44.60
2023-01-21T05:02:54.462Z,47.60
2023-01-21T05:03:54.414Z,47.40
2023-01-21T05:04:54.444Z,46.70
2023-01-21T05:05:54.409Z,45.10
2023-01-21T05:06:54.928Z,47.80
2023-01-21T05:07:54.400Z,47.10
2023-01-21T05:08:54.365Z,47.20
2023-01-21T05:09:54.405Z,45.10
2023-01-21T05:10:54.343Z,48.10
2023-01-21T05:11:54.368Z,48.60
2023-01-21T05:12:54.348Z,45.20
2023-01-21T05:13:54.339Z,46.50
2023-01-21T05:14:54.343Z,48.10
2023-01-21T05:15:54.385Z,44.10
2023-01-21T05:16:54.383Z,45.70
2023-01-21T05:17:54.314Z,46.80
2023-01-21T05:18:54.304Z,46.20
2023-01-21T05:19:54.339Z,43.70
2023-01-21T05:20:54.282Z,46.50
2023-01-21T05:21:54.310Z,47.50
2023-01-21T05:22:54.254Z,49.70
2023-01-21T05:23:54.234Z,45.30
2023-01-21T05:24:54.368Z,46.90
2023-01-21T05:25:54.253Z,44.40
2023-01-21T05:26:54.237Z,45.10
2023-01-21T05:27:54.229Z,46.10
2023-01-21T05:28:54.213Z,44.90
2023-01-21T05:29:54.212Z,46.60
2023-01-21T05:30:54.364Z,44.70
2023-01-21T05:31:54.240Z,46.80
2023-01-21T05:32:54.186Z,50.00
2023-01-21T05:33:54.178Z,43.40
2023-01-21T05:34:54.212Z,50.10
2023-01-21T05:35:54.175Z,44.50
2023-01-21T05:36:54.159Z,51.60
2023-01-21T05:37:54.148Z,43.90
2023-01-21T05:38:54.158Z,49.30
2023-01-21T05:39:54.125Z,45.40
2023-01-21T05:40:54.142Z,46.30
2023-01-21T05:41:54.148Z,46.30
2023-01-21T05:42:54.117Z,46.80
2023-01-21T05:43:54.929Z,47.40
2023-01-21T05:44:54.097Z,45.90
2023-01-21T05:45:54.171Z,48.30
2023-01-21T05:46:54.106Z,50.80
2023-01-21T05:47:54.080Z,46.50
2023-01-21T05:48:54.087Z,43.50
2023-01-21T05:49:54.093Z,44.50
2023-01-21T05:50:54.611Z,45.70
2023-01-21T05:51:54.086Z,43.80
2023-01-21T05:52:54.070Z,46.50
2023-01-21T05:53:54.090Z,47.00
2023-01-21T05:55:01.941Z,47.20
2023-01-21T05:55:56.027Z,42.70
2023-01-21T05:56:54.083Z,44.80
2023-01-21T05:57:54.005Z,46.40
2023-01-21T05:58:54.035Z,46.10
2023-01-21T05:59:53.988Z,46.90
2023-01-21T06:00:53.992Z,44.80
2023-01-21T06:01:53.979Z,48.60
2023-01-21T06:02:53.993Z,47.30
2023-01-21T06:03:54.049Z,46.20
2023-01-21T06:04:54.031Z,47.90
2023-01-21T06:05:53.965Z,45.30
2023-01-21T06:06:53.954Z,45.50
2023-01-21T06:07:53.949Z,45.30
2023-01-21T06:08:53.951Z,47.30
2023-01-21T06:09:53.927Z,44.50
2023-01-21T06:10:53.922Z,45.80
2023-01-21T06:11:53.921Z,44.20
2023-01-21T06:12:53.889Z,45.40
2023-01-21T06:13:53.909Z,46.30
2023-01-21T06:14:53.879Z,44.50
2023-01-21T06:15:53.926Z,52.50
2023-01-21T06:16:53.880Z,42.80
2023-01-21T06:17:53.857Z,44.10
2023-01-21T06:18:53.860Z,45.60
2023-01-21T06:19:53.836Z,43.60
2023-01-21T06:20:53.858Z,47.30
2023-01-21T06:21:53.842Z,43.30
2023-01-21T06:22:53.819Z,44.20
2023-01-21T06:23:53.815Z,45.10
2023-01-21T06:24:53.799Z,42.60
2023-01-21T06:25:53.801Z,45.10
2023-01-21T06:26:53.803Z,49.80
2023-01-21T06:27:53.788Z,42.90
2023-01-21T06:28:53.810Z,44.00
2023-01-21T06:29:54.478Z,50.70
2023-01-21T06:30:53.857Z,48.00
2023-01-21T06:31:53.866Z,48.60
2023-01-21T06:32:53.753Z,46.90
2023-01-21T06:33:53.757Z,44.90
2023-01-21T06:34:53.760Z,43.10
2023-01-21T06:35:53.759Z,41.50
2023-01-21T06:36:53.728Z,45.00
2023-01-21T06:37:53.745Z,44.30
2023-01-21T06:38:53.712Z,42.00
2023-01-21T06:39:53.772Z,44.30
2023-01-21T06:40:53.714Z,43.50
2023-01-21T06:41:55.354Z,44.20
2023-01-21T06:42:54.672Z,45.10
2023-01-21T06:43:53.673Z,41.60
2023-01-21T06:44:53.683Z,42.80
2023-01-21T06:45:54.897Z,42.30
2023-01-21T06:47:00.701Z,43.00
2023-01-21T06:47:55.669Z,46.10
2023-01-21T06:48:53.699Z,48.70
2023-01-21T06:49:53.634Z,41.90
2023-01-21T06:50:54.485Z,43.70
2023-01-21T06:51:53.642Z,43.90
2023-01-21T06:52:53.628Z,43.80
2023-01-21T06:53:53.604Z,40.40
2023-01-21T06:54:53.606Z,42.40
2023-01-21T06:55:53.577Z,47.10
2023-01-21T06:56:53.583Z,42.90
2023-01-21T06:57:53.592Z,43.70
2023-01-21T06:58:53.564Z,46.20
2023-01-21T06:59:53.567Z,41.00
2023-01-21T07:00:53.595Z,42.30
2023-01-21T07:01:53.619Z,41.40
2023-01-21T07:02:53.635Z,42.80
2023-01-21T07:03:53.604Z,41.00
2023-01-21T07:04:53.534Z,43.30
2023-01-21T07:05:53.537Z,43.20
2023-01-21T07:06:53.500Z,40.70
2023-01-21T07:07:53.515Z,42.90
2023-01-21T07:08:53.520Z,43.80
2023-01-21T07:09:53.534Z,42.00
2023-01-21T07:10:53.515Z,37.80
2023-01-21T07:11:53.496Z,42.00
2023-01-21T07:12:53.455Z,40.60
2023-01-21T07:13:53.472Z,43.40
2023-01-21T07:14:53.447Z,42.10
2023-01-21T07:15:54.448Z,41.10
2023-01-21T07:16:53.433Z,43.20
2023-01-21T07:17:53.477Z,45.20
2023-01-21T07:18:53.458Z,44.40
2023-01-21T07:19:53.475Z,41.70
2023-01-21T07:20:53.436Z,42.90
2023-01-21T07:21:53.398Z,45.80
2023-01-21T07:22:53.443Z,50.00
2023-01-21T07:23:53.385Z,46.20
2023-01-21T07:24:53.387Z,46.50
2023-01-21T07:25:53.384Z,40.90
2023-01-21T07:26:53.370Z,42.40
2023-01-21T07:27:54.356Z,43.70
2023-01-21T07:28:53.350Z,42.60
2023-01-21T07:29:53.378Z,46.20
2023-01-21T07:30:53.326Z,42.10
2023-01-21T07:31:53.452Z,42.10
2023-01-21T07:32:53.346Z,45.00
2023-01-21T07:33:53.316Z,46.70
2023-01-21T07:34:53.319Z,45.00
2023-01-21T07:35:53.311Z,46.90
2023-01-21T07:36:53.306Z,42.00
2023-01-21T07:37:53.313Z,43.90
2023-01-21T07:38:53.272Z,46.90
2023-01-21T07:39:54.705Z,46.40
2023-01-21T07:40:54.336Z,49.40
2023-01-21T07:41:53.845Z,45.90
2023-01-21T07:42:53.258Z,43.30
2023-01-21T07:43:53.250Z,44.00
2023-01-21T07:44:53.252Z,44.80
2023-01-21T07:45:53.228Z,43.10
2023-01-21T07:46:53.287Z,41.30
2023-01-21T07:47:53.242Z,39.70
2023-01-21T07:48:53.211Z,42.90
2023-01-21T07:49:53.242Z,50.30
2023-01-21T07:50:53.205Z,46.70
2023-01-21T07:51:53.214Z,44.60
2023-01-21T07:52:53.204Z,46.40
2023-01-21T07:53:53.185Z,46.30
2023-01-21T07:54:53.169Z,46.30
2023-01-21T07:55:53.161Z,42.90
2023-01-21T07:56:53.180Z,44.70
2023-01-21T07:57:53.165Z,47.90
2023-01-21T07:58:53.198Z,41.00
2023-01-21T07:59:53.147Z,49.10
2023-01-21T08:00:53.137Z,48.80
2023-01-21T08:01:53.254Z,48.00
2023-01-21T08:02:54.857Z,49.80
2023-01-21T08:03:53.122Z,48.20
2023-01-21T08:04:53.845Z,45.60
2023-01-21T08:05:53.118Z,45.30
2023-01-21T08:06:53.088Z,48.80
2023-01-21T08:07:53.077Z,47.30
2023-01-21T08:08:53.087Z,44.70
2023-01-21T08:09:53.068Z,44.70
2023-01-21T08:10:53.045Z,45.70
2023-01-21T08:11:53.037Z,39.60
2023-01-21T08:12:53.026Z,46.20
2023-01-21T08:13:53.040Z,38.90
2023-01-21T08:14:53.011Z,41.00
2023-01-21T08:15:53.080Z,41.80
2023-01-21T08:16:52.999Z,36.30
2023-01-21T08:17:53.008Z,39.10
2023-01-21T08:18:53.008Z,45.00
2023-01-21T08:19:52.999Z,35.70
2023-01-21T08:20:53.002Z,37.80
2023-01-21T08:21:52.984Z,41.70
2023-01-21T08:22:52.945Z,43.90
2023-01-21T08:23:52.945Z,40.40
2023-01-21T08:24:52.965Z,32.50
2023-01-21T08:25:52.955Z,30.30
2023-01-21T08:26:52.939Z,34.40
2023-01-21T08:27:53.792Z,41.30
2023-01-21T08:28:52.922Z,31.00
2023-01-21T08:29:52.920Z,44.70
2023-01-21T08:30:52.927Z,39.30
2023-01-21T08:31:52.940Z,41.50
2023-01-21T08:32:52.901Z,40.80
2023-01-21T08:33:52.916Z,42.00
2023-01-21T08:34:52.865Z,41.10
2023-01-21T08:36:24.815Z,45.00
2023-01-21T08:36:52.873Z,39.40
2023-01-21T08:37:52.849Z,41.80
2023-01-21T08:38:52.837Z,39.60
2023-01-21T08:39:52.839Z,44.60
2023-01-21T08:40:52.836Z,41.30
2023-01-21T08:41:52.869Z,42.60
2023-01-21T08:42:52.799Z,44.80
2023-01-21T08:43:53.372Z,41.10
2023-01-21T08:44:52.802Z,42.10
2023-01-21T08:45:52.849Z,42.20
2023-01-21T08:46:52.796Z,43.80
2023-01-21T08:47:52.784Z,42.70
2023-01-21T08:49:24.685Z,40.10
2023-01-21T08:49:52.766Z,41.80
2023-01-21T08:50:52.852Z,35.20
2023-01-21T08:51:52.776Z,35.40
2023-01-21T08:52:52.760Z,35.40
2023-01-21T08:53:52.758Z,39.80
2023-01-21T08:54:52.717Z,38.60
2023-01-21T08:55:52.719Z,42.30
2023-01-21T08:56:52.704Z,39.60
2023-01-21T08:57:52.705Z,36.80
2023-01-21T08:58:52.721Z,36.70
2023-01-21T08:59:52.709Z,35.30
2023-01-21T09:00:52.713Z,42.00
2023-01-21T09:01:52.708Z,37.30
2023-01-21T09:02:52.653Z,37.90
2023-01-21T09:03:52.655Z,35.80
2023-01-21T09:04:52.639Z,37.10
2023-01-21T09:05:52.638Z,41.60
2023-01-21T09:06:52.649Z,37.10
2023-01-21T09:07:52.638Z,40.40
2023-01-21T09:08:52.659Z,42.20
2023-01-21T09:09:53.321Z,36.10
2023-01-21T09:10:52.617Z,32.30
2023-01-21T09:11:52.602Z,40.60
2023-01-21T09:12:52.612Z,40.60
2023-01-21T09:13:52.624Z,38.40
2023-01-21T09:14:52.587Z,36.10
2023-01-21T09:15:52.605Z,38.20
2023-01-21T09:16:52.603Z,37.80
2023-01-21T09:17:52.584Z,41.20
2023-01-21T09:18:52.585Z,38.10
2023-01-21T09:19:54.082Z,44.20
2023-01-21T09:20:52.531Z,38.40
2023-01-21T09:21:52.532Z,37.30
2023-01-21T09:22:52.520Z,37.70
2023-01-21T09:23:52.530Z,37.30
2023-01-21T09:24:52.508Z,37.50
2023-01-21T09:25:53.518Z,36.70
2023-01-21T09:26:52.509Z,36.60
2023-01-21T09:27:52.533Z,37.90
2023-01-21T09:28:52.468Z,37.20
2023-01-21T09:29:52.484Z,37.80
2023-01-21T09:30:52.499Z,36.80
2023-01-21T09:31:52.527Z,42.10
2023-01-21T09:32:52.486Z,40.50
2023-01-21T09:33:52.425Z,38.90
2023-01-21T09:34:52.446Z,36.50
2023-01-21T09:35:52.431Z,39.10
2023-01-21T09:36:52.455Z,39.70
2023-01-21T09:37:52.404Z,38.90
2023-01-21T09:38:52.424Z,37.20
2023-01-21T09:39:52.386Z,35.20
2023-01-21T09:40:52.429Z,33.30
2023-01-21T09:41:52.390Z,36.00
2023-01-21T09:42:52.371Z,36.60
2023-01-21T09:43:52.366Z,37.60
2023-01-21T09:44:52.392Z,36.60
2023-01-21T09:45:52.361Z,34.70
2023-01-21T09:46:52.378Z,39.00
2023-01-21T09:47:52.342Z,40.40
2023-01-21T09:48:52.343Z,34.30
2023-01-21T09:49:52.323Z,36.00
2023-01-21T09:50:52.341Z,35.50
2023-01-21T09:51:52.808Z,37.20
2023-01-21T09:52:53.329Z,35.30
2023-01-21T09:53:52.301Z,35.50
2023-01-21T09:54:52.279Z,35.10
2023-01-21T09:55:52.286Z,35.00
2023-01-21T09:56:52.302Z,32.40
2023-01-21T09:57:52.288Z,29.30
2023-01-21T09:58:52.290Z,34.60
2023-01-21T09:59:52.257Z,34.10
2023-01-21T10:00:52.380Z,31.70
2023-01-21T10:01:52.311Z,32.60
2023-01-21T10:02:52.236Z,31.50
2023-01-21T10:03:52.216Z,30.40
2023-01-21T10:04:52.279Z,30.60
2023-01-21T10:05:52.191Z,34.50
2023-01-21T10:06:53.200Z,32.90
2023-01-21T10:07:52.209Z,30.60
2023-01-21T10:08:52.182Z,31.80
2023-01-21T10:09:52.187Z,30.90
2023-01-21T10:10:52.175Z,31.30
2023-01-21T10:11:52.160Z,32.20
2023-01-21T10:12:52.143Z,35.00
2023-01-21T10:13:53.184Z,33.80
2023-01-21T10:14:53.182Z,34.90
2023-01-21T10:15:52.144Z,34.20
2023-01-21T10:16:52.153Z,35.70
2023-01-21T10:17:52.163Z,31.70
2023-01-21T10:18:52.095Z,33.50
2023-01-21T10:19:52.121Z,30.70
2023-01-21T10:20:52.095Z,33.60
2023-01-21T10:21:52.089Z,33.70
2023-01-21T10:22:52.089Z,37.10
2023-01-21T10:23:52.868Z,34.50
2023-01-21T10:24:52.099Z,31.10
2023-01-21T10:25:52.062Z,34.40
2023-01-21T10:26:52.048Z,33.10
2023-01-21T10:27:52.038Z,33.40
2023-01-21T10:28:52.027Z,34.50
2023-01-21T10:29:52.037Z,33.00
2023-01-21T10:30:52.073Z,33.00
2023-01-21T10:31:52.195Z,32.70
2023-01-21T10:32:52.092Z,33.90
2023-01-21T10:33:51.993Z,32.60
2023-01-21T10:34:51.982Z,34.00
2023-01-21T10:35:52.054Z,31.10
2023-01-21T10:36:51.979Z,35.70
2023-01-21T10:37:51.985Z,34.10
2023-01-21T10:38:51.965Z,28.10
2023-01-21T10:39:51.969Z,26.50
2023-01-21T10:40:51.960Z,26.80
2023-01-21T10:41:51.947Z,24.20
2023-01-21T10:42:51.920Z,17.20
2023-01-21T10:43:51.929Z,14.80
2023-01-21T10:44:51.922Z,18.10
2023-01-21T10:45:51.987Z,17.90
2023-01-21T10:46:51.902Z,14.40
2023-01-21T10:47:51.874Z,15.70
2023-01-21T10:48:51.874Z,16.80
2023-01-21T10:49:51.889Z,16.10
2023-01-21T10:50:51.904Z,16.70
2023-01-21T10:51:51.879Z,16.50
2023-01-21T10:52:51.848Z,16.30
2023-01-21T10:53:51.882Z,14.90
2023-01-21T10:54:51.828Z,14.50
2023-01-21T10:55:51.834Z,15.80
2023-01-21T10:56:51.814Z,15.60
2023-01-21T10:57:51.843Z,16.50
2023-01-21T10:58:51.802Z,14.90
2023-01-21T10:59:51.823Z,16.30
2023-01-21T11:00:51.810Z,14.70
2023-01-21T11:01:51.777Z,16.10
2023-01-21T11:02:51.813Z,15.20
2023-01-21T11:03:51.767Z,14.20
2023-01-21T11:04:51.774Z,15.00
2023-01-21T11:05:52.795Z,18.00
2023-01-21T11:06:51.794Z,15.70
2023-01-21T11:07:51.759Z,14.40
2023-01-21T11:08:51.790Z,16.30
2023-01-21T11:09:51.738Z,14.30
2023-01-21T11:10:51.723Z,17.90
2023-01-21T11:11:51.716Z,17.00
2023-01-21T11:12:51.716Z,18.00
2023-01-21T11:13:51.701Z,14.40
2023-01-21T11:14:51.694Z,13.00
2023-01-21T11:15:51.734Z,14.10
2023-01-21T11:16:51.707Z,13.10
2023-01-21T11:17:51.662Z,13.40
2023-01-21T11:18:51.732Z,13.70
2023-01-21T11:19:51.674Z,11.80
2023-01-21T11:20:51.656Z,11.60
2023-01-21T11:21:51.637Z,13.30
2023-01-21T11:22:51.651Z,11.60
2023-01-21T11:23:51.620Z,13.70
2023-01-21T11:24:51.632Z,13.00
2023-01-21T11:25:51.609Z,13.70
2023-01-21T11:26:51.586Z,14.20
2023-01-21T11:27:51.577Z,11.30
2023-01-21T11:28:51.604Z,12.50
2023-01-21T11:29:51.592Z,12.00
2023-01-21T11:30:52.006Z,12.40
2023-01-21T11:31:53.609Z,12.00
2023-01-21T11:32:51.552Z,12.20
2023-01-21T11:33:51.556Z,13.20
2023-01-21T11:34:51.621Z,11.30
2023-01-21T11:35:51.520Z,11.90
2023-01-21T11:36:51.572Z,13.80
2023-01-21T11:37:51.515Z,12.20
2023-01-21T11:38:51.524Z,13.00
2023-01-21T11:39:51.522Z,12.30
2023-01-21T11:40:51.529Z,13.80
2023-01-21T11:41:51.492Z,11.90
2023-01-21T11:42:51.478Z,13.20
2023-01-21T11:43:51.501Z,12.60
2023-01-21T11:44:51.504Z,13.20
2023-01-21T11:45:51.494Z,12.20
2023-01-21T11:46:51.457Z,12.90
2023-01-21T11:47:52.511Z,10.30
2023-01-21T11:48:51.428Z,11.40
2023-01-21T11:49:51.435Z,9.90
2023-01-21T11:50:51.497Z,10.20
2023-01-21T11:51:51.404Z,9.80
2023-01-21T11:52:51.424Z,9.80
2023-01-21T11:53:51.394Z,12.30
2023-01-21T11:54:51.393Z,10.40
2023-01-21T11:55:51.395Z,11.40
2023-01-21T11:56:51.375Z,10.80
2023-01-21T11:57:51.371Z,11.90
2023-01-21T11:58:51.364Z,11.70
2023-01-21T11:59:51.358Z,10.90
2023-01-21T12:00:51.379Z,10.70
2023-01-21T12:01:51.333Z,11.20
2023-01-21T12:02:51.346Z,9.80
2023-01-21T12:03:51.354Z,9.50
2023-01-21T12:04:51.318Z,9.90
2023-01-21T12:05:51.354Z,8.70
2023-01-21T12:06:51.997Z,9.60
2023-01-21T12:07:51.932Z,10.70
2023-01-21T12:08:51.281Z,10.90
2023-01-21T12:09:51.272Z,10.90
2023-01-21T12:10:51.317Z,10.70
2023-01-21T12:11:51.279Z,10.20
2023-01-21T12:12:51.321Z,10.50
2023-01-21T12:13:51.246Z,12.40
2023-01-21T12:14:51.235Z,11.50
2023-01-21T12:15:51.278Z,11.30
2023-01-21T12:16:51.234Z,12.90
2023-01-21T12:17:51.247Z,13.30
2023-01-21T12:18:51.211Z,32.30
2023-01-21T12:19:51.197Z,24.10
2023-01-21T12:20:51.189Z,19.90
2023-01-21T12:21:51.185Z,29.00
2023-01-21T12:22:51.186Z,15.50
2023-01-21T12:23:51.260Z,13.50
2023-01-21T12:24:51.177Z,12.70
2023-01-21T12:25:51.161Z,13.10
2023-01-21T12:26:51.143Z,15.00
2023-01-21T12:27:51.139Z,14.40
2023-01-21T12:28:51.135Z,11.70
2023-01-21T12:29:51.110Z,23.00
2023-01-21T12:30:51.143Z,40.60
2023-01-21T12:31:51.164Z,46.20
2023-01-21T12:32:51.096Z,38.70
2023-01-21T12:33:51.168Z,23.30
2023-01-21T12:34:51.102Z,22.10
2023-01-21T12:35:51.085Z,17.10
2023-01-21T12:36:51.075Z,23.20
2023-01-21T12:37:51.062Z,20.00
2023-01-21T12:38:51.077Z,15.60
2023-01-21T12:39:51.056Z,13.10
2023-01-21T12:40:51.051Z,14.60
2023-01-21T12:41:51.036Z,10.80
2023-01-21T12:42:51.034Z,12.40
2023-01-21T12:43:51.021Z,14.30
2023-01-21T12:44:51.017Z,14.00
2023-01-21T12:45:51.011Z,18.00
2023-01-21T12:46:51.096Z,15.10
2023-01-21T12:47:50.996Z,15.70
2023-01-21T12:48:50.995Z,14.50
2023-01-21T12:49:50.977Z,14.90
2023-01-21T12:50:51.040Z,11.90
2023-01-21T12:51:50.952Z,11.00
2023-01-21T12:52:50.962Z,14.80
2023-01-21T12:53:51.843Z,13.60
2023-01-21T12:54:50.939Z,11.70
2023-01-21T12:55:50.950Z,11.80
2023-01-21T12:56:50.933Z,13.40
2023-01-21T12:57:50.903Z,15.10
2023-01-21T12:58:50.911Z,16.90
2023-01-21T12:59:50.918Z,12.60
2023-01-21T13:00:50.939Z,15.30
2023-01-21T13:01:50.928Z,21.00
2023-01-21T13:02:50.880Z,17.70
2023-01-21T13:03:51.840Z,17.60
2023-01-21T13:04:50.850Z,16.70
2023-01-21T13:05:50.850Z,14.80
2023-01-21T13:06:54.349Z,18.50
2023-01-21T13:07:51.829Z,43.00